sensor_id;sensor_type;location;lat;lon;timestamp;pressure;altitude;pressure_sealevel;temperature;humidity
38054;BME280;23859;50.672;7.164;2023-04-20T00:00:16;58904.66;;;7.75;71.63
38054;BME280;23859;50.672;7.164;2023-04-20T00:02:42;58927.69;;;8.06;69.49
38054;BME280;23859;50.672;7.164;2023-04-20T00:05:09;58952.91;;;8.21;70.81
38054;BME280;23859;50.672;7.164;2023-04-20T00:07:36;58947.34;;;8.18;69.71
38054;BME280;23859;50.672;7.164;2023-04-20T00:10:03;58956.50;;;8.22;69.57
38054;BME280;23859;50.672;7.164;2023-04-20T00:12:30;58942.75;;;8.16;69.62
38054;BME280;23859;50.672;7.164;2023-04-20T00:14:56;58952.25;;;8.23;70.77
38054;BME280;23859;50.672;7.164;2023-04-20T00:17:22;58896.50;;;7.64;68.42
38054;BME280;23859;50.672;7.164;2023-04-20T00:19:48;58959.44;;;8.25;64.90
38054;BME280;23859;50.672;7.164;2023-04-20T00:22:14;58943.41;;;8.14;69.13
38054;BME280;23859;50.672;7.164;2023-04-20T00:24:40;58934.25;;;8.02;67.11
38054;BME280;23859;50.672;7.164;2023-04-20T00:27:06;58924.09;;;7.97;66.85
38054;BME280;23859;50.672;7.164;2023-04-20T00:29:33;58921.50;;;7.90;69.35
38054;BME280;23859;50.672;7.164;2023-04-20T00:31:59;58917.56;;;7.86;69.13
38054;BME280;23859;50.672;7.164;2023-04-20T00:34:25;58909.06;;;7.80;69.33
38054;BME280;23859;50.672;7.164;2023-04-20T00:36:51;58915.44;;;7.86;70.59
38054;BME280;23859;50.672;7.164;2023-04-20T00:39:17;58917.56;;;7.86;70.33
38054;BME280;23859;50.672;7.164;2023-04-20T00:41:43;58906.44;;;7.80;69.22
38054;BME280;23859;50.672;7.164;2023-04-20T00:44:09;58900.56;;;7.66;69.79
38054;BME280;23859;50.672;7.164;2023-04-20T00:46:38;58881.28;;;7.57;70.71
38054;BME280;23859;50.672;7.164;2023-04-20T00:49:05;58890.59;;;7.58;71.01
38054;BME280;23859;50.672;7.164;2023-04-20T00:51:34;58883.56;;;7.54;70.98
38054;BME280;23859;50.672;7.164;2023-04-20T00:54:00;58891.91;;;7.62;71.97
38054;BME280;23859;50.672;7.164;2023-04-20T00:56:27;58897.28;;;7.68;70.79
38054;BME280;23859;50.672;7.164;2023-04-20T00:58:53;58896.31;;;7.67;70.28
38054;BME280;23859;50.672;7.164;2023-04-20T01:01:19;58896.31;;;7.67;70.70
38054;BME280;23859;50.672;7.164;2023-04-20T01:03:45;58907.13;;;7.78;70.81
38054;BME280;23859;50.672;7.164;2023-04-20T01:06:14;58929.31;;;8.05;68.41
38054;BME280;23859;50.672;7.164;2023-04-20T01:08:51;58952.91;;;8.21;67.60
38054;BME280;23859;50.672;7.164;2023-04-20T01:11:17;58949.31;;;8.20;66.49
38054;BME280;23859;50.672;7.164;2023-04-20T01:13:43;58833.09;;;7.03;68.95
38054;BME280;23859;50.672;7.164;2023-04-20T01:16:10;58943.75;;;8.09;68.49
38054;BME280;23859;50.672;7.164;2023-04-20T01:18:47;58947.50;;;8.16;68.82
38054;BME280;23859;50.672;7.164;2023-04-20T01:21:14;58953.53;;;8.27;67.01
38054;BME280;23859;50.672;7.164;2023-04-20T01:23:41;58973.50;;;8.42;68.50
38054;BME280;23859;50.672;7.164;2023-04-20T01:26:09;59003.94;;;8.73;64.39
38054;BME280;23859;50.672;7.164;2023-04-20T01:28:35;59030.63;;;8.97;64.12
38054;BME280;23859;50.672;7.164;2023-04-20T01:31:05;59034.06;;;9.01;64.44
38054;BME280;23859;50.672;7.164;2023-04-20T01:33:32;59030.75;;;9.03;64.42
38054;BME280;23859;50.672;7.164;2023-04-20T01:35:59;59008.34;;;8.77;65.91
38054;BME280;23859;50.672;7.164;2023-04-20T01:38:25;58983.31;;;8.60;68.03
38054;BME280;23859;50.672;7.164;2023-04-20T01:40:53;59004.59;;;8.71;66.31
38054;BME280;23859;50.672;7.164;2023-04-20T01:43:20;59009.50;;;8.76;65.27
38054;BME280;23859;50.672;7.164;2023-04-20T01:45:46;59001.97;;;8.71;64.02
38054;BME280;23859;50.672;7.164;2023-04-20T01:48:12;58985.63;;;8.57;66.13
38054;BME280;23859;50.672;7.164;2023-04-20T01:50:38;58992.63;;;8.61;67.10
38054;BME280;23859;50.672;7.164;2023-04-20T01:53:04;58986.25;;;8.55;69.15
38054;BME280;23859;50.672;7.164;2023-04-20T01:55:30;58980.03;;;8.54;68.67
38054;BME280;23859;50.672;7.164;2023-04-20T01:57:56;58888.16;;;7.56;68.62
38054;BME280;23859;50.672;7.164;2023-04-20T02:00:24;58988.06;;;8.60;67.91
38054;BME280;23859;50.672;7.164;2023-04-20T02:02:50;58999.00;;;8.76;63.57
38054;BME280;23859;50.672;7.164;2023-04-20T02:05:16;59037.81;;;9.07;62.57
38054;BME280;23859;50.672;7.164;2023-04-20T02:07:42;58955.50;;;8.29;62.46
38054;BME280;23859;50.672;7.164;2023-04-20T02:10:09;59026.34;;;8.98;63.91
38054;BME280;23859;50.672;7.164;2023-04-20T02:12:35;59058.91;;;9.28;62.24
38054;BME280;23859;50.672;7.164;2023-04-20T02:15:01;59061.19;;;9.33;61.64
38054;BME280;23859;50.672;7.164;2023-04-20T02:17:27;59075.13;;;9.45;61.30
38054;BME280;23859;50.672;7.164;2023-04-20T02:19:53;59059.25;;;9.31;63.33
38054;BME280;23859;50.672;7.164;2023-04-20T02:22:19;59057.59;;;9.32;61.44
38054;BME280;23859;50.672;7.164;2023-04-20T02:24:45;59067.44;;;9.42;59.37
38054;BME280;23859;50.672;7.164;2023-04-20T02:27:11;59060.06;;;9.35;61.41
38054;BME280;23859;50.672;7.164;2023-04-20T02:29:37;58997.06;;;8.74;60.26
38054;BME280;23859;50.672;7.164;2023-04-20T02:32:04;59075.13;;;9.45;59.94
38054;BME280;23859;50.672;7.164;2023-04-20T02:34:30;59076.13;;;9.46;58.61
38054;BME280;23859;50.672;7.164;2023-04-20T02:36:56;59073.16;;;9.51;59.97
38054;BME280;23859;50.672;7.164;2023-04-20T02:39:22;59066.94;;;9.42;59.60
38054;BME280;23859;50.672;7.164;2023-04-20T02:41:49;59053.34;;;9.26;59.99
38054;BME280;23859;50.672;7.164;2023-04-20T02:44:15;59049.91;;;9.22;61.17
38054;BME280;23859;50.672;7.164;2023-04-20T02:46:41;59054.34;;;9.27;61.01
38054;BME280;23859;50.672;7.164;2023-04-20T02:49:07;59053.50;;;9.31;59.96
38054;BME280;23859;50.672;7.164;2023-04-20T02:51:33;59065.78;;;9.35;59.63
38054;BME280;23859;50.672;7.164;2023-04-20T02:53:59;59081.03;;;9.51;59.80
38054;BME280;23859;50.672;7.164;2023-04-20T02:56:25;59078.88;;;9.51;59.83
38054;BME280;23859;50.672;7.164;2023-04-20T02:58:52;59079.53;;;9.57;59.60
38054;BME280;23859;50.672;7.164;2023-04-20T03:01:18;59055.00;;;9.25;60.77
38054;BME280;23859;50.672;7.164;2023-04-20T03:03:44;59047.16;;;9.17;64.36
38054;BME280;23859;50.672;7.164;2023-04-20T03:06:11;59048.44;;;9.13;63.09
38054;BME280;23859;50.672;7.164;2023-04-20T03:08:37;59019.31;;;8.94;64.17
38054;BME280;23859;50.672;7.164;2023-04-20T03:11:03;59013.75;;;8.83;67.89
38054;BME280;23859;50.672;7.164;2023-04-20T03:13:29;58980.03;;;8.54;70.96
38054;BME280;23859;50.672;7.164;2023-04-20T03:15:55;58979.06;;;8.45;74.19
38054;BME280;23859;50.672;7.164;2023-04-20T03:18:21;58960.75;;;8.29;77.70
38054;BME280;23859;50.672;7.164;2023-04-20T03:20:47;58953.72;;;8.25;83.09
38054;BME280;23859;50.672;7.164;2023-04-20T03:23:13;58957.16;;;8.28;83.96
38054;BME280;23859;50.672;7.164;2023-04-20T03:25:40;58956.84;;;8.25;81.77
38054;BME280;23859;50.672;7.164;2023-04-20T03:28:07;58885.88;;;7.51;80.48
38054;BME280;23859;50.672;7.164;2023-04-20T03:30:33;58940.63;;;8.09;77.43
38054;BME280;23859;50.672;7.164;2023-04-20T03:32:59;58939.78;;;8.13;80.74
38054;BME280;23859;50.672;7.164;2023-04-20T03:35:25;58939.78;;;8.05;83.98
38054;BME280;23859;50.672;7.164;2023-04-20T03:37:52;58925.25;;;7.96;81.36
38054;BME280;23859;50.672;7.164;2023-04-20T03:40:18;58930.97;;;8.04;84.26
38054;BME280;23859;50.672;7.164;2023-04-20T03:42:44;58916.59;;;7.85;87.08
38054;BME280;23859;50.672;7.164;2023-04-20T03:45:11;58905.47;;;7.79;84.83
38054;BME280;23859;50.672;7.164;2023-04-20T03:47:37;58891.75;;;7.57;83.86
38054;BME280;23859;50.672;7.164;2023-04-20T03:50:03;58871.81;;;7.42;88.22
38054;BME280;23859;50.672;7.164;2023-04-20T03:52:29;58870.50;;;7.38;90.32
38054;BME280;23859;50.672;7.164;2023-04-20T03:54:55;58861.69;;;7.29;89.75
38054;BME280;23859;50.672;7.164;2023-04-20T03:57:21;58866.91;;;7.37;90.03
38054;BME280;23859;50.672;7.164;2023-04-20T03:59:48;58878.03;;;7.43;94.34
38054;BME280;23859;50.672;7.164;2023-04-20T04:02:14;58862.19;;;7.29;92.89
38054;BME280;23859;50.672;7.164;2023-04-20T04:04:40;58856.13;;;7.18;92.62
38054;BME280;23859;50.672;7.164;2023-04-20T04:07:06;58856.28;;;7.24;93.62
38054;BME280;23859;50.672;7.164;2023-04-20T04:09:32;58842.75;;;7.07;97.12
38054;BME280;23859;50.672;7.164;2023-04-20T04:11:58;58842.41;;;7.04;96.22
38054;BME280;23859;50.672;7.164;2023-04-20T04:14:24;58844.69;;;7.09;93.93
38054;BME280;23859;50.672;7.164;2023-04-20T04:16:50;58834.91;;;7.07;84.09
38054;BME280;23859;50.672;7.164;2023-04-20T04:19:16;58846.97;;;7.14;89.99
38054;BME280;23859;50.672;7.164;2023-04-20T04:21:42;58859.06;;;7.29;94.58
38054;BME280;23859;50.672;7.164;2023-04-20T04:24:08;58846.97;;;7.14;95.64
38054;BME280;23859;50.672;7.164;2023-04-20T04:26:35;58838.81;;;7.11;95.03
38054;BME280;23859;50.672;7.164;2023-04-20T04:29:01;58846.84;;;7.17;99.95
38054;BME280;23859;50.672;7.164;2023-04-20T04:31:29;58880.00;;;7.45;100.00
38054;BME280;23859;50.672;7.164;2023-04-20T04:33:57;58874.75;;;7.45;99.75
38054;BME280;23859;50.672;7.164;2023-04-20T04:36:23;58867.41;;;7.37;100.00
38054;BME280;23859;50.672;7.164;2023-04-20T04:38:51;58863.66;;;7.39;100.00
38054;BME280;23859;50.672;7.164;2023-04-20T04:41:17;58871.31;;;7.41;98.68
38054;BME280;23859;50.672;7.164;2023-04-20T04:43:44;58871.63;;;7.44;97.91
38054;BME280;23859;50.672;7.164;2023-04-20T04:46:11;58882.94;;;7.48;97.66
38054;BME280;23859;50.672;7.164;2023-04-20T04:48:39;58883.56;;;7.54;96.72
38054;BME280;23859;50.672;7.164;2023-04-20T04:51:07;58908.41;;;7.74;93.98
38054;BME280;23859;50.672;7.164;2023-04-20T04:53:34;58899.25;;;7.70;95.32
38054;BME280;23859;50.672;7.164;2023-04-20T04:56:00;58914.63;;;7.83;95.04
38054;BME280;23859;50.672;7.164;2023-04-20T04:58:26;58905.78;;;7.74;97.98
38054;BME280;23859;50.672;7.164;2023-04-20T05:00:52;58911.38;;;7.77;95.80
38054;BME280;23859;50.672;7.164;2023-04-20T05:03:18;58891.91;;;7.62;100.00
38054;BME280;23859;50.672;7.164;2023-04-20T05:05:45;58890.44;;;7.61;99.93
38054;BME280;23859;50.672;7.164;2023-04-20T05:08:11;58900.56;;;7.74;97.60
38054;BME280;23859;50.672;7.164;2023-04-20T05:10:37;58913.31;;;7.79;97.62
38054;BME280;23859;50.672;7.164;2023-04-20T05:13:03;58915.63;;;7.84;96.41
38054;BME280;23859;50.672;7.164;2023-04-20T05:15:29;58913.81;;;7.79;99.50
38054;BME280;23859;50.672;7.164;2023-04-20T05:17:55;58913.31;;;7.79;98.20
38054;BME280;23859;50.672;7.164;2023-04-20T05:20:21;58904.50;;;7.70;99.82
38054;BME280;23859;50.672;7.164;2023-04-20T05:22:47;58900.72;;;7.71;98.60
38054;BME280;23859;50.672;7.164;2023-04-20T05:25:13;58901.22;;;7.64;100.00
38054;BME280;23859;50.672;7.164;2023-04-20T05:27:40;58897.63;;;7.71;96.82
38054;BME280;23859;50.672;7.164;2023-04-20T05:30:06;58916.28;;;7.82;95.96
38054;BME280;23859;50.672;7.164;2023-04-20T05:32:32;58917.91;;;7.89;93.38
38054;BME280;23859;50.672;7.164;2023-04-20T05:34:58;58917.91;;;7.89;93.57
38054;BME280;23859;50.672;7.164;2023-04-20T05:37:25;58903.34;;;7.71;97.42
38054;BME280;23859;50.672;7.164;2023-04-20T05:39:52;58901.22;;;7.64;97.44
38054;BME280;23859;50.672;7.164;2023-04-20T05:42:18;58924.09;;;7.90;96.06
38054;BME280;23859;50.672;7.164;2023-04-20T05:44:44;58903.00;;;7.76;96.77
38054;BME280;23859;50.672;7.164;2023-04-20T05:47:10;58888.81;;;7.54;97.34
38054;BME280;23859;50.672;7.164;2023-04-20T05:49:36;58886.38;;;7.59;97.59
38054;BME280;23859;50.672;7.164;2023-04-20T05:52:03;58919.19;;;7.85;95.37
38054;BME280;23859;50.672;7.164;2023-04-20T05:54:29;58897.47;;;7.65;99.65
38054;BME280;23859;50.672;7.164;2023-04-20T05:56:55;58893.72;;;7.59;100.00
38054;BME280;23859;50.672;7.164;2023-04-20T05:59:25;58885.22;;;7.45;100.00
38054;BME280;23859;50.672;7.164;2023-04-20T06:01:51;58868.22;;;7.41;100.00
38054;BME280;23859;50.672;7.164;2023-04-20T06:04:17;58870.81;;;7.41;100.00
38054;BME280;23859;50.672;7.164;2023-04-20T06:06:43;58790.50;;;6.67;100.00
38054;BME280;23859;50.672;7.164;2023-04-20T06:09:10;58878.34;;;7.46;100.00
38054;BME280;23859;50.672;7.164;2023-04-20T06:11:36;58878.19;;;7.48;100.00
38054;BME280;23859;50.672;7.164;2023-04-20T06:14:02;58884.88;;;7.50;100.00
38054;BME280;23859;50.672;7.164;2023-04-20T06:16:28;58889.78;;;7.55;100.00
38054;BME280;23859;50.672;7.164;2023-04-20T06:18:54;58897.28;;;7.68;100.00
38054;BME280;23859;50.672;7.164;2023-04-20T06:21:20;58895.34;;;7.66;100.00
38054;BME280;23859;50.672;7.164;2023-04-20T06:23:46;58919.84;;;7.91;100.00
38054;BME280;23859;50.672;7.164;2023-04-20T06:26:12;58840.78;;;7.13;98.78
38054;BME280;23859;50.672;7.164;2023-04-20T06:28:38;58899.91;;;7.68;99.54
38054;BME280;23859;50.672;7.164;2023-04-20T06:31:04;58908.09;;;7.79;100.00
38054;BME280;23859;50.672;7.164;2023-04-20T06:33:30;58922.63;;;7.88;100.00
38054;BME280;23859;50.672;7.164;2023-04-20T06:35:57;58918.88;;;7.82;100.00
38054;BME280;23859;50.672;7.164;2023-04-20T06:38:23;58921.16;;;7.87;100.00
38054;BME280;23859;50.672;7.164;2023-04-20T06:40:50;58923.78;;;7.87;100.00
38054;BME280;23859;50.672;7.164;2023-04-20T06:43:16;58941.63;;;8.02;100.00
38054;BME280;23859;50.672;7.164;2023-04-20T06:45:42;58909.09;;;7.72;100.00
38054;BME280;23859;50.672;7.164;2023-04-20T06:48:08;58921.00;;;7.89;98.32
38054;BME280;23859;50.672;7.164;2023-04-20T06:50:34;58928.69;;;7.92;100.00
38054;BME280;23859;50.672;7.164;2023-04-20T06:53:02;58933.94;;;7.99;100.00
38054;BME280;23859;50.672;7.164;2023-04-20T06:55:29;58926.88;;;7.95;100.00
38054;BME280;23859;50.672;7.164;2023-04-20T06:57:55;58917.56;;;7.86;98.85
38054;BME280;23859;50.672;7.164;2023-04-20T07:00:21;58913.81;;;7.79;99.86
38054;BME280;23859;50.672;7.164;2023-04-20T07:02:49;58909.06;;;7.80;98.13
38054;BME280;23859;50.672;7.164;2023-04-20T07:05:17;58921.81;;;7.85;98.91
38054;BME280;23859;50.672;7.164;2023-04-20T07:07:43;58904.66;;;7.67;97.75
38054;BME280;23859;50.672;7.164;2023-04-20T07:10:11;58899.13;;;7.64;100.00
38054;BME280;23859;50.672;7.164;2023-04-20T07:12:38;58901.56;;;7.67;100.00
38054;BME280;23859;50.672;7.164;2023-04-20T07:15:06;58916.09;;;7.84;100.00
38054;BME280;23859;50.672;7.164;2023-04-20T07:17:33;58930.50;;;7.96;100.00
38054;BME280;23859;50.672;7.164;2023-04-20T07:19:59;58915.75;;;7.81;98.83
38054;BME280;23859;50.672;7.164;2023-04-20T07:22:32;58920.69;;;7.86;99.91
38054;BME280;23859;50.672;7.164;2023-04-20T07:25:00;58935.88;;;8.01;99.54
38054;BME280;23859;50.672;7.164;2023-04-20T07:27:27;58929.81;;;7.98;100.00
38054;BME280;23859;50.672;7.164;2023-04-20T07:29:55;58926.38;;;8.02;100.00
38054;BME280;23859;50.672;7.164;2023-04-20T07:32:21;58932.28;;;8.00;100.00
38054;BME280;23859;50.672;7.164;2023-04-20T07:34:48;58927.53;;;8.01;99.62
38054;BME280;23859;50.672;7.164;2023-04-20T07:37:14;58921.31;;;7.92;99.91
38054;BME280;23859;50.672;7.164;2023-04-20T07:39:40;58910.06;;;7.81;98.69
38054;BME280;23859;50.672;7.164;2023-04-20T07:42:06;58913.31;;;7.79;100.00
38054;BME280;23859;50.672;7.164;2023-04-20T07:44:32;58920.03;;;7.88;100.00
38054;BME280;23859;50.672;7.164;2023-04-20T07:47:00;58898.78;;;7.69;100.00
38054;BME280;23859;50.672;7.164;2023-04-20T07:49:27;58912.66;;;7.81;100.00
38054;BME280;23859;50.672;7.164;2023-04-20T07:51:53;58893.38;;;7.64;100.00
38054;BME280;23859;50.672;7.164;2023-04-20T07:54:19;58893.53;;;7.69;100.00
38054;BME280;23859;50.672;7.164;2023-04-20T07:56:45;58891.75;;;7.57;100.00
38054;BME280;23859;50.672;7.164;2023-04-20T07:59:11;58897.28;;;7.68;100.00
38054;BME280;23859;50.672;7.164;2023-04-20T08:01:37;58911.38;;;7.77;99.42
38054;BME280;23859;50.672;7.164;2023-04-20T08:04:03;58945.72;;;8.19;96.68
38054;BME280;23859;50.672;7.164;2023-04-20T08:06:29;58958.31;;;8.27;98.51
38054;BME280;23859;50.672;7.164;2023-04-20T08:08:56;58925.75;;;7.96;99.85
38054;BME280;23859;50.672;7.164;2023-04-20T08:11:22;58919.19;;;7.85;99.06
38054;BME280;23859;50.672;7.164;2023-04-20T08:13:49;58901.88;;;7.70;99.09
38054;BME280;23859;50.672;7.164;2023-04-20T08:16:15;58906.63;;;7.77;100.00
38054;BME280;23859;50.672;7.164;2023-04-20T08:18:41;58907.59;;;7.78;100.00
38054;BME280;23859;50.672;7.164;2023-04-20T08:21:07;58906.13;;;7.77;100.00
38054;BME280;23859;50.672;7.164;2023-04-20T08:23:34;58905.97;;;7.71;100.00
38054;BME280;23859;50.672;7.164;2023-04-20T08:26:00;58898.59;;;7.64;100.00
38054;BME280;23859;50.672;7.164;2023-04-20T08:28:26;58899.75;;;7.70;100.00
38054;BME280;23859;50.672;7.164;2023-04-20T08:30:52;58894.34;;;7.65;100.00
38054;BME280;23859;50.672;7.164;2023-04-20T08:33:18;58901.41;;;7.69;100.00
38054;BME280;23859;50.672;7.164;2023-04-20T08:35:45;58893.72;;;7.59;100.00
38054;BME280;23859;50.672;7.164;2023-04-20T08:38:11;58898.59;;;7.64;100.00
38054;BME280;23859;50.672;7.164;2023-04-20T08:40:37;58901.88;;;7.70;100.00
38054;BME280;23859;50.672;7.164;2023-04-20T08:43:03;58917.25;;;7.83;100.00
38054;BME280;23859;50.672;7.164;2023-04-20T08:45:29;58945.69;;;8.11;100.00
38054;BME280;23859;50.672;7.164;2023-04-20T08:47:57;58943.06;;;8.11;96.38
38054;BME280;23859;50.672;7.164;2023-04-20T08:50:25;58945.69;;;8.11;96.67
38054;BME280;23859;50.672;7.164;2023-04-20T08:52:52;58946.53;;;8.15;97.01
38054;BME280;23859;50.672;7.164;2023-04-20T08:55:18;58978.09;;;8.44;95.88
38054;BME280;23859;50.672;7.164;2023-04-20T08:57:46;58970.41;;;8.42;97.98
38054;BME280;23859;50.672;7.164;2023-04-20T09:00:13;58974.66;;;8.41;97.99
38054;BME280;23859;50.672;7.164;2023-04-20T09:02:54;58979.38;;;8.48;99.82
38054;BME280;23859;50.672;7.164;2023-04-20T09:05:30;58969.25;;;8.35;97.56
38054;BME280;23859;50.672;7.164;2023-04-20T09:07:58;59002.13;;;8.68;97.87
38054;BME280;23859;50.672;7.164;2023-04-20T09:10:26;59012.13;;;8.84;94.08
38054;BME280;23859;50.672;7.164;2023-04-20T09:12:52;59044.53;;;9.09;94.23
38054;BME280;23859;50.672;7.164;2023-04-20T09:15:29;59083.81;;;9.56;90.96
38054;BME280;23859;50.672;7.164;2023-04-20T09:17:55;59115.25;;;9.88;85.56
38054;BME280;23859;50.672;7.164;2023-04-20T09:20:32;59122.31;;;9.93;81.84
38054;BME280;23859;50.672;7.164;2023-04-20T09:23:11;59125.09;;;9.98;84.57
38054;BME280;23859;50.672;7.164;2023-04-20T09:25:37;59138.22;;;10.06;81.51
38054;BME280;23859;50.672;7.164;2023-04-20T09:28:05;59192.13;;;10.63;80.89
38054;BME280;23859;50.672;7.164;2023-04-20T09:30:40;59187.72;;;10.59;82.17
38054;BME280;23859;50.672;7.164;2023-04-20T09:33:07;59206.06;;;10.74;80.85
38054;BME280;23859;50.672;7.164;2023-04-20T09:35:33;59232.97;;;11.04;77.73
38054;BME280;23859;50.672;7.164;2023-04-20T09:38:01;59234.94;;;11.06;79.08
38054;BME280;23859;50.672;7.164;2023-04-20T09:40:27;59240.66;;;11.15;76.39
38054;BME280;23859;50.672;7.164;2023-04-20T09:42:53;59236.22;;;11.10;75.37
38054;BME280;23859;50.672;7.164;2023-04-20T09:45:20;59211.31;;;10.82;75.48
38054;BME280;23859;50.672;7.164;2023-04-20T09:47:47;59189.84;;;10.58;76.20
38054;BME280;23859;50.672;7.164;2023-04-20T09:50:14;59164.44;;;10.38;78.43
38054;BME280;23859;50.672;7.164;2023-04-20T09:52:42;59156.72;;;10.27;81.08
38054;BME280;23859;50.672;7.164;2023-04-20T09:55:10;59184.09;;;10.58;77.54
38054;BME280;23859;50.672;7.164;2023-04-20T09:57:38;59174.25;;;10.48;74.91
38054;BME280;23859;50.672;7.164;2023-04-20T10:00:06;59145.75;;;10.19;77.73
38054;BME280;23859;50.672;7.164;2023-04-20T10:02:33;59173.94;;;10.45;78.14
38054;BME280;23859;50.672;7.164;2023-04-20T10:04:59;59168.03;;;10.39;74.53
38054;BME280;23859;50.672;7.164;2023-04-20T10:07:29;59169.34;;;10.43;73.53
38054;BME280;23859;50.672;7.164;2023-04-20T10:10:10;59150.66;;;10.24;76.39
38054;BME280;23859;50.672;7.164;2023-04-20T10:12:50;59161.78;;;10.38;75.80
38054;BME280;23859;50.672;7.164;2023-04-20T10:15:17;59140.81;;;10.14;75.05
38054;BME280;23859;50.672;7.164;2023-04-20T10:17:43;59107.41;;;9.72;79.10
38054;BME280;23859;50.672;7.164;2023-04-20T10:20:24;59101.50;;;9.74;78.99
38054;BME280;23859;50.672;7.164;2023-04-20T10:22:52;59125.41;;;9.93;79.15
38054;BME280;23859;50.672;7.164;2023-04-20T10:25:26;59138.22;;;10.06;77.44
38054;BME280;23859;50.672;7.164;2023-04-20T10:27:53;59169.03;;;10.40;75.87
38054;BME280;23859;50.672;7.164;2023-04-20T10:30:19;59224.78;;;10.93;73.48
38054;BME280;23859;50.672;7.164;2023-04-20T10:32:45;59204.75;;;10.78;72.74
38054;BME280;23859;50.672;7.164;2023-04-20T10:35:12;59194.91;;;10.68;74.65
38054;BME280;23859;50.672;7.164;2023-04-20T10:37:49;59194.44;;;10.68;73.73
38054;BME280;23859;50.672;7.164;2023-04-20T10:40:23;59167.06;;;10.38;74.32
38054;BME280;23859;50.672;7.164;2023-04-20T10:42:49;59124.25;;;10.02;76.54
38054;BME280;23859;50.672;7.164;2023-04-20T10:45:15;59136.06;;;10.06;77.57
38054;BME280;23859;50.672;7.164;2023-04-20T10:47:42;59172.78;;;10.46;73.80
38054;BME280;23859;50.672;7.164;2023-04-20T10:50:11;59234.59;;;11.11;72.27
38054;BME280;23859;50.672;7.164;2023-04-20T10:52:40;59233.13;;;11.10;72.00
38054;BME280;23859;50.672;7.164;2023-04-20T10:55:17;59282.66;;;11.62;69.58
38054;BME280;23859;50.672;7.164;2023-04-20T10:57:46;59321.25;;;11.98;66.16
38054;BME280;23859;50.672;7.164;2023-04-20T11:00:14;59265.78;;;11.32;70.71
38054;BME280;23859;50.672;7.164;2023-04-20T11:02:51;59274.78;;;11.46;73.64
38054;BME280;23859;50.672;7.164;2023-04-20T11:05:18;59255.13;;;11.27;68.04
38054;BME280;23859;50.672;7.164;2023-04-20T11:07:58;59192.63;;;10.63;70.59
38054;BME280;23859;50.672;7.164;2023-04-20T11:10:37;59190.66;;;10.62;71.40
38054;BME280;23859;50.672;7.164;2023-04-20T11:13:04;59192.78;;;10.61;72.56
38054;BME280;23859;50.672;7.164;2023-04-20T11:15:31;59275.13;;;11.49;67.92
38054;BME280;23859;50.672;7.164;2023-04-20T11:18:07;59309.94;;;11.79;68.29
38054;BME280;23859;50.672;7.164;2023-04-20T11:20:34;59308.47;;;11.78;66.23
38054;BME280;23859;50.672;7.164;2023-04-20T11:23:01;59331.09;;;12.08;65.57
38054;BME280;23859;50.672;7.164;2023-04-20T11:25:30;59375.97;;;12.46;62.88
38054;BME280;23859;50.672;7.164;2023-04-20T11:28:08;59409.81;;;12.82;65.13
38054;BME280;23859;50.672;7.164;2023-04-20T11:30:38;59401.38;;;12.82;61.13
38054;BME280;23859;50.672;7.164;2023-04-20T11:33:04;59415.56;;;12.91;61.35
38054;BME280;23859;50.672;7.164;2023-04-20T11:35:39;59363.63;;;12.33;62.82
38054;BME280;23859;50.672;7.164;2023-04-20T11:38:06;59362.00;;;12.34;62.75
38054;BME280;23859;50.672;7.164;2023-04-20T11:40:33;59368.22;;;12.43;63.57
38054;BME280;23859;50.672;7.164;2023-04-20T11:42:59;59318.97;;;11.94;64.69
38054;BME280;23859;50.672;7.164;2023-04-20T11:45:25;59283.34;;;11.52;65.44
38054;BME280;23859;50.672;7.164;2023-04-20T11:47:53;59257.41;;;11.31;66.93
38054;BME280;23859;50.672;7.164;2023-04-20T11:50:20;59189.31;;;10.73;68.92
38054;BME280;23859;50.672;7.164;2023-04-20T11:52:46;59271.69;;;11.46;67.84
38054;BME280;23859;50.672;7.164;2023-04-20T11:55:12;59309.28;;;11.81;64.72
38054;BME280;23859;50.672;7.164;2023-04-20T11:57:39;59336.38;;;12.08;65.68
38054;BME280;23859;50.672;7.164;2023-04-20T12:00:06;59364.28;;;12.39;64.47
38054;BME280;23859;50.672;7.164;2023-04-20T12:02:32;59368.06;;;12.46;63.70
38054;BME280;23859;50.672;7.164;2023-04-20T12:04:58;59407.00;;;12.85;61.12
38054;BME280;23859;50.672;7.164;2023-04-20T12:07:27;59383.00;;;12.58;63.25
38054;BME280;23859;50.672;7.164;2023-04-20T12:09:53;59267.09;;;11.36;62.35
38054;BME280;23859;50.672;7.164;2023-04-20T12:12:19;59400.25;;;12.75;60.74
38054;BME280;23859;50.672;7.164;2023-04-20T12:14:45;59390.75;;;12.61;60.89
38054;BME280;23859;50.672;7.164;2023-04-20T12:17:11;59403.88;;;12.76;59.43
38054;BME280;23859;50.672;7.164;2023-04-20T12:19:37;59401.41;;;12.74;61.07
38054;BME280;23859;50.672;7.164;2023-04-20T12:22:03;59554.72;;;14.31;57.64
38054;BME280;23859;50.672;7.164;2023-04-20T12:24:29;59666.88;;;15.43;56.15
38054;BME280;23859;50.672;7.164;2023-04-20T12:26:55;59762.84;;;16.40;51.30
38054;BME280;23859;50.672;7.164;2023-04-20T12:29:23;59741.53;;;16.18;49.36
38054;BME280;23859;50.672;7.164;2023-04-20T12:31:50;59705.56;;;15.88;53.17
38054;BME280;23859;50.672;7.164;2023-04-20T12:34:16;59606.44;;;14.77;53.87
38054;BME280;23859;50.672;7.164;2023-04-20T12:36:42;59506.31;;;13.82;54.46
38054;BME280;23859;50.672;7.164;2023-04-20T12:39:08;59468.31;;;13.44;56.46
38054;BME280;23859;50.672;7.164;2023-04-20T12:41:36;59546.19;;;14.17;54.49
38054;BME280;23859;50.672;7.164;2023-04-20T12:44:02;59533.63;;;14.07;57.78
38054;BME280;23859;50.672;7.164;2023-04-20T12:46:28;59680.22;;;15.57;53.17
38054;BME280;23859;50.672;7.164;2023-04-20T12:48:54;59791.53;;;16.68;48.03
38054;BME280;23859;50.672;7.164;2023-04-20T12:51:21;59765.31;;;16.42;49.41
38054;BME280;23859;50.672;7.164;2023-04-20T12:53:47;59691.41;;;15.71;50.92
38054;BME280;23859;50.672;7.164;2023-04-20T12:56:13;59625.53;;;14.99;47.62
38054;BME280;23859;50.672;7.164;2023-04-20T12:58:40;59793.38;;;16.65;47.06
38054;BME280;23859;50.672;7.164;2023-04-20T13:01:06;59790.84;;;16.70;47.64
38054;BME280;23859;50.672;7.164;2023-04-20T13:03:32;59734.94;;;16.14;47.70